Time;durP1;ratioP1;P1;durP2;ratioP2;P2;SDS_P1;SDS_P2;PMS_P1;PMS_P2;Temp;Humidity;BMP_temperature;BMP_pressure;BME280_temperature;BME280_humidity;BME280_pressure;Samples;Min_cycle;Max_cycle;Signal;HPM_P1;HPM_P2
2023/09/06 00:00:58;;;;;;;;;;;23.90;99.90;;;;;;5100097;28;19908;-71
2023/09/06 00:03:26;;;;;;;;;;;23.90;99.90;;;;;;5099716;28;19966;-72
2023/09/06 00:05:52;;;;;;;;;;;23.90;99.90;;;;;;5099951;28;19908;-71
2023/09/06 00:08:18;;;;;;;;;;;23.90;99.90;;;;;;5099988;28;19969;-73
2023/09/06 00:10:44;;;;;;;;;;;23.90;99.90;;;;;;5095937;28;19935;-72
2023/09/06 00:13:10;;;;;;;;;;;23.80;99.90;;;;;;5096532;28;19916;-72
2023/09/06 00:15:36;;;;;;;;;;;23.80;99.90;;;;;;5096497;28;19908;-72
2023/09/06 00:18:03;;;;;;;;;;;23.80;99.90;;;;;;5096753;28;19908;-72
2023/09/06 00:20:30;;;;;;;;;;;23.80;99.90;;;;;;5078035;28;19909;-71
2023/09/06 00:22:59;;;;;;;;;;;23.80;99.90;;;;;;5096363;28;19909;-73
2023/09/06 00:25:26;;;;;;;;;;;23.80;99.90;;;;;;5096246;28;19912;-71
2023/09/06 00:27:52;;;;;;;;;;;23.80;99.90;;;;;;5096221;28;19912;-71
2023/09/06 00:30:18;;;;;;;;;;;23.90;99.90;;;;;;5096211;28;19908;-71
2023/09/06 00:32:47;;;;;;;;;;;23.90;99.90;;;;;;5077890;28;19916;-71
2023/09/06 00:35:15;;;;;;;;;;;23.90;99.90;;;;;;5095867;28;19995;-71
2023/09/06 00:37:45;;;;;;;;;;;23.80;99.90;;;;;;5095787;28;20367;-71
2023/09/06 00:40:17;;;;;;;;;;;23.80;99.90;;;;;;5096472;28;19939;-71
2023/09/06 00:42:47;;;;;;;;;;;23.80;99.90;;;;;;5095950;28;19915;-71
2023/09/06 00:45:13;;;;;;;;;;;23.80;99.90;;;;;;5095832;28;19921;-71
2023/09/06 00:47:42;;;;;;;;;;;23.80;99.90;;;;;;5096397;28;19944;-73
2023/09/06 00:50:08;;;;;;;;;;;23.80;99.90;;;;;;5095696;28;19954;-71
2023/09/06 00:52:33;;;;;;;;;;;23.70;99.90;;;;;;5095768;28;20375;-72
2023/09/06 00:55:01;;;;;;;;;;;23.80;99.90;;;;;;5096248;28;19914;-72
2023/09/06 00:57:29;;;;;;;;;;;23.80;99.90;;;;;;5095704;28;19977;-72
2023/09/06 00:59:58;;;;;;;;;;;23.80;99.90;;;;;;5095572;28;19908;-72
2023/09/06 01:02:24;;;;;;;;;;;23.70;99.90;;;;;;5095768;28;19908;-71
2023/09/06 01:04:50;;;;;;;;;;;23.70;99.90;;;;;;5095524;28;19916;-71
2023/09/06 01:07:16;;;;;;;;;;;23.80;99.90;;;;;;5095367;28;19908;-71
2023/09/06 01:09:42;;;;;;;;;;;23.80;99.90;;;;;;5095466;28;19999;-71
2023/09/06 01:12:09;;;;;;;;;;;23.80;99.90;;;;;;5095261;28;19912;-71
2023/09/06 01:14:38;;;;;;;;;;;23.80;99.90;;;;;;5095226;28;19908;-71
2023/09/06 01:17:04;;;;;;;;;;;23.80;99.90;;;;;;5095321;28;19908;-71
2023/09/06 01:19:32;;;;;;;;;;;23.80;99.90;;;;;;5095317;28;19916;-71
2023/09/06 01:22:06;;;;;;;;;;;23.80;99.90;;;;;;5094739;28;19915;-73
2023/09/06 01:24:32;;;;;;;;;;;23.80;99.90;;;;;;5095164;28;19953;-71
2023/09/06 01:26:59;;;;;;;;;;;23.70;99.90;;;;;;5095138;28;19912;-71
2023/09/06 01:29:24;;;;;;;;;;;23.70;99.90;;;;;;5094988;28;19908;-71
2023/09/06 01:31:50;;;;;;;;;;;23.70;99.90;;;;;;5095469;28;20431;-71
2023/09/06 01:34:16;;;;;;;;;;;23.80;99.90;;;;;;5094999;28;19962;-71
2023/09/06 01:36:43;;;;;;;;;;;23.80;99.90;;;;;;5094673;28;19920;-71
2023/09/06 01:39:09;;;;;;;;;;;23.70;99.90;;;;;;5095129;28;19908;-72
2023/09/06 01:41:35;;;;;;;;;;;23.70;99.90;;;;;;5094779;28;19908;-71
2023/09/06 01:44:01;;;;;;;;;;;23.70;99.90;;;;;;5095199;28;19915;-71
2023/09/06 01:46:26;;;;;;;;;;;23.70;99.90;;;;;;5095364;28;19915;-71
2023/09/06 01:48:52;;;;;;;;;;;23.70;99.90;;;;;;5094982;28;20000;-71
2023/09/06 01:51:18;;;;;;;;;;;23.70;99.90;;;;;;5094673;28;19908;-71
2023/09/06 01:53:44;;;;;;;;;;;23.70;99.90;;;;;;5095158;28;20015;-71
2023/09/06 01:56:10;;;;;;;;;;;23.70;99.90;;;;;;5094545;28;19917;-72
2023/09/06 01:58:37;;;;;;;;;;;23.80;99.90;;;;;;5095107;28;19943;-71
2023/09/06 02:01:07;;;;;;;;;;;23.70;99.90;;;;;;5094491;28;19908;-71
2023/09/06 02:03:33;;;;;;;;;;;23.80;99.90;;;;;;5076274;28;19958;-71
2023/09/06 02:06:01;;;;;;;;;;;23.70;99.90;;;;;;5094257;28;19914;-71
2023/09/06 02:08:27;;;;;;;;;;;23.70;99.90;;;;;;5076161;28;19915;-73
2023/09/06 02:10:53;;;;;;;;;;;23.70;99.90;;;;;;5094327;28;19908;-71
2023/09/06 02:13:18;;;;;;;;;;;23.50;99.90;;;;;;5094391;28;20325;-71
2023/09/06 02:15:44;;;;;;;;;;;23.40;99.90;;;;;;5094291;28;19908;-71
2023/09/06 02:18:15;;;;;;;;;;;23.40;99.90;;;;;;5094717;28;20009;-71
2023/09/06 02:20:41;;;;;;;;;;;23.40;99.90;;;;;;5093970;28;19935;-71
2023/09/06 02:23:07;;;;;;;;;;;23.40;99.90;;;;;;5075962;28;19908;-72
2023/09/06 02:25:33;;;;;;;;;;;23.40;99.90;;;;;;5094059;28;19995;-71
2023/09/06 02:28:05;;;;;;;;;;;23.40;99.90;;;;;;5094339;28;20385;-71
2023/09/06 02:30:37;;;;;;;;;;;23.30;99.90;;;;;;5094003;28;19908;-71
2023/09/06 02:33:04;;;;;;;;;;;23.20;99.90;;;;;;5093749;28;19923;-71
2023/09/06 02:35:30;;;;;;;;;;;23.20;99.90;;;;;;5075585;28;19912;-71
2023/09/06 02:37:56;;;;;;;;;;;23.20;99.90;;;;;;5093701;28;19926;-71
2023/09/06 02:40:22;;;;;;;;;;;23.10;99.90;;;;;;5075691;28;19908;-71
2023/09/06 02:42:51;;;;;;;;;;;23.00;99.90;;;;;;5075644;28;19908;-71
2023/09/06 02:45:17;;;;;;;;;;;23.00;99.90;;;;;;5093941;28;19923;-71
2023/09/06 02:47:49;;;;;;;;;;;23.00;99.90;;;;;;5075627;28;20018;-72
2023/09/06 02:50:22;;;;;;;;;;;23.00;99.90;;;;;;5075426;28;20280;-71
2023/09/06 02:52:50;;;;;;;;;;;23.00;99.90;;;;;;5075534;28;19916;-71
2023/09/06 02:55:16;;;;;;;;;;;23.00;99.90;;;;;;5093810;28;19908;-71
2023/09/06 02:57:43;;;;;;;;;;;22.80;99.90;;;;;;5094189;28;19931;-71
2023/09/06 03:00:25;;;;;;;;;;;22.80;99.90;;;;;;5093606;28;19909;-71
2023/09/06 03:02:54;;;;;;;;;;;22.90;99.90;;;;;;5075485;28;20308;-71
2023/09/06 03:05:20;;;;;;;;;;;23.00;99.90;;;;;;5075233;28;19909;-72
2023/09/06 03:07:49;;;;;;;;;;;23.10;99.90;;;;;;5093837;28;20253;-72
2023/09/06 03:10:19;;;;;;;;;;;23.20;99.90;;;;;;5093550;28;20288;-71
2023/09/06 03:12:46;;;;;;;;;;;23.20;99.90;;;;;;5093447;28;19920;-71
2023/09/06 03:15:13;;;;;;;;;;;23.20;99.90;;;;;;5075146;28;19919;-72
2023/09/06 03:17:39;;;;;;;;;;;23.20;99.90;;;;;;5094023;28;20380;-71
2023/09/06 03:20:18;;;;;;;;;;;23.10;99.90;;;;;;5093423;28;19969;-71
2023/09/06 03:22:49;;;;;;;;;;;23.20;99.90;;;;;;5093722;28;19908;-71
2023/09/06 03:25:16;;;;;;;;;;;23.10;99.90;;;;;;5075293;28;19915;-71
2023/09/06 03:27:42;;;;;;;;;;;23.10;99.90;;;;;;5093373;28;19915;-71
2023/09/06 03:30:08;;;;;;;;;;;23.10;99.90;;;;;;5093336;28;19915;-71
2023/09/06 03:32:35;;;;;;;;;;;23.10;99.90;;;;;;5075081;28;19916;-71
2023/09/06 03:35:04;;;;;;;;;;;23.10;99.90;;;;;;5093341;28;20368;-72
2023/09/06 03:37:31;;;;;;;;;;;23.10;99.90;;;;;;5092911;28;19920;-71
2023/09/06 03:39:57;;;;;;;;;;;23.10;99.90;;;;;;5093313;28;20356;-71
2023/09/06 03:42:23;;;;;;;;;;;23.10;99.90;;;;;;5093239;28;19916;-71
2023/09/06 03:44:49;;;;;;;;;;;23.10;99.90;;;;;;5095323;28;20003;-71
2023/09/06 03:47:16;;;;;;;;;;;23.10;99.90;;;;;;5096977;28;19954;-71
2023/09/06 03:49:43;;;;;;;;;;;23.00;99.90;;;;;;5097010;28;19912;-71
2023/09/06 03:52:10;;;;;;;;;;;23.00;99.90;;;;;;5078490;28;19916;-71
2023/09/06 03:54:36;;;;;;;;;;;23.00;99.90;;;;;;5097200;28;19958;-71
2023/09/06 03:57:03;;;;;;;;;;;23.00;99.90;;;;;;5096914;28;19913;-71
2023/09/06 03:59:31;;;;;;;;;;;22.90;99.90;;;;;;5096836;28;19915;-71
2023/09/06 04:01:57;;;;;;;;;;;22.70;99.90;;;;;;5096757;28;20268;-71
2023/09/06 04:04:23;;;;;;;;;;;22.70;99.90;;;;;;5096766;28;19909;-71
2023/09/06 04:06:49;;;;;;;;;;;22.80;99.90;;;;;;5096511;28;19919;-72
2023/09/06 04:09:18;;;;;;;;;;;22.80;99.90;;;;;;5097150;28;19908;-71
2023/09/06 04:11:43;;;;;;;;;;;22.80;99.90;;;;;;5097110;28;19912;-71
2023/09/06 04:14:09;;;;;;;;;;;22.90;99.90;;;;;;5096480;28;19912;-71
2023/09/06 04:16:38;;;;;;;;;;;22.80;99.90;;;;;;5096465;28;20042;-72
2023/09/06 04:19:07;;;;;;;;;;;22.70;99.90;;;;;;5096442;28;19915;-71
2023/09/06 04:21:33;;;;;;;;;;;22.70;99.90;;;;;;5078026;28;20006;-71
2023/09/06 04:23:59;;;;;;;;;;;22.70;99.90;;;;;;5078196;28;19996;-71
2023/09/06 04:26:25;;;;;;;;;;;22.70;99.90;;;;;;5078124;28;19909;-71
2023/09/06 04:28:51;;;;;;;;;;;22.70;99.90;;;;;;5096531;28;20007;-71
2023/09/06 04:31:17;;;;;;;;;;;22.70;99.90;;;;;;5096422;28;20447;-72
2023/09/06 04:33:44;;;;;;;;;;;22.80;99.90;;;;;;5096168;28;20330;-72
2023/09/06 04:36:10;;;;;;;;;;;22.80;99.90;;;;;;5096027;28;19908;-71
2023/09/06 04:38:36;;;;;;;;;;;22.80;99.90;;;;;;5095869;28;20443;-71
2023/09/06 04:41:02;;;;;;;;;;;22.80;99.90;;;;;;5096573;28;19918;-71
2023/09/06 04:43:28;;;;;;;;;;;22.80;99.90;;;;;;5095968;28;19908;-71
2023/09/06 04:45:54;;;;;;;;;;;22.80;99.90;;;;;;5095923;28;19915;-71
2023/09/06 04:48:23;;;;;;;;;;;22.80;99.90;;;;;;5095937;28;19908;-71
2023/09/06 04:50:49;;;;;;;;;;;22.90;99.90;;;;;;5095856;28;19941;-72
2023/09/06 04:53:17;;;;;;;;;;;22.90;99.90;;;;;;5078275;28;19939;-71
2023/09/06 04:55:44;;;;;;;;;;;22.90;99.90;;;;;;5076837;28;19931;-72
2023/09/06 04:58:11;;;;;;;;;;;22.90;99.90;;;;;;5096155;28;19953;-71
2023/09/06 05:00:43;;;;;;;;;;;23.00;99.90;;;;;;5095820;28;19908;-71
2023/09/06 05:03:11;;;;;;;;;;;23.10;99.90;;;;;;5077305;28;19914;-71
2023/09/06 05:05:37;;;;;;;;;;;23.10;99.90;;;;;;5095256;28;19912;-71
2023/09/06 05:08:03;;;;;;;;;;;23.10;99.90;;;;;;5095461;28;19954;-73
2023/09/06 05:10:29;;;;;;;;;;;23.00;99.90;;;;;;5095411;28;19908;-72
2023/09/06 05:12:55;;;;;;;;;;;23.10;99.90;;;;;;5095314;28;19916;-71
2023/09/06 05:15:21;;;;;;;;;;;23.20;99.90;;;;;;5094918;28;19977;-72
2023/09/06 05:17:46;;;;;;;;;;;23.20;99.90;;;;;;5094971;28;19915;-72
2023/09/06 05:20:27;;;;;;;;;;;23.30;99.90;;;;;;5095330;28;20007;-71
2023/09/06 05:22:56;;;;;;;;;;;23.30;99.90;;;;;;5095522;28;20435;-71
2023/09/06 05:25:22;;;;;;;;;;;23.60;99.90;;;;;;5076552;28;19908;-71
2023/09/06 05:27:48;;;;;;;;;;;24.50;99.90;;;;;;5076463;28;19908;-71
2023/09/06 05:30:14;;;;;;;;;;;25.70;99.90;;;;;;5094856;28;19915;-71
2023/09/06 05:32:40;;;;;;;;;;;26.20;99.90;;;;;;5095007;28;19916;-73
2023/09/06 05:35:06;;;;;;;;;;;27.20;99.90;;;;;;5076526;28;20401;-71
2023/09/06 05:37:32;;;;;;;;;;;27.10;99.90;;;;;;5094076;28;20288;-71
2023/09/06 05:39:58;;;;;;;;;;;27.70;99.90;;;;;;5094917;28;19953;-72
2023/09/06 05:42:23;;;;;;;;;;;27.70;99.90;;;;;;5094311;28;19950;-71
2023/09/06 05:44:49;;;;;;;;;;;28.40;99.90;;;;;;5094270;28;20007;-72
2023/09/06 05:47:15;;;;;;;;;;;29.00;99.90;;;;;;5094607;28;20300;-71
2023/09/06 05:49:41;;;;;;;;;;;29.00;99.90;;;;;;5093952;28;20282;-69
2023/09/06 05:52:07;;;;;;;;;;;29.50;99.90;;;;;;5093837;28;19959;-72
2023/09/06 05:54:32;;;;;;;;;;;29.40;99.90;;;;;;5093698;28;19934;-71
2023/09/06 05:56:58;;;;;;;;;;;30.20;99.90;;;;;;5094042;28;19919;-70
2023/09/06 05:59:24;;;;;;;;;;;30.30;99.90;;;;;;5075542;28;19911;-72
2023/09/06 06:01:51;;;;;;;;;;;28.90;99.90;;;;;;5075392;28;19908;-72
2023/09/06 06:04:17;;;;;;;;;;;29.00;99.90;;;;;;5075505;28;20361;-71
2023/09/06 06:06:42;;;;;;;;;;;29.80;99.90;;;;;;5075048;28;19942;-72
2023/09/06 06:09:13;;;;;;;;;;;30.20;99.90;;;;;;5074550;28;19908;-70
2023/09/06 06:11:40;;;;;;;;;;;30.50;99.90;;;;;;5093704;28;19960;-73
2023/09/06 06:14:06;;;;;;;;;;;30.70;99.90;;;;;;5093582;28;19912;-73
2023/09/06 06:16:31;;;;;;;;;;;30.80;99.90;;;;;;5094037;28;20379;-72
2023/09/06 06:18:57;;;;;;;;;;;31.70;99.90;;;;;;5075449;28;19908;-73
2023/09/06 06:21:24;;;;;;;;;;;32.30;99.90;;;;;;5075313;28;20315;-73
2023/09/06 06:23:50;;;;;;;;;;;32.30;99.90;;;;;;5093583;28;19958;-72
2023/09/06 06:26:19;;;;;;;;;;;32.10;99.90;;;;;;5093196;28;19955;-72
2023/09/06 06:28:45;;;;;;;;;;;32.20;99.90;;;;;;5093292;28;19946;-73
2023/09/06 06:31:11;;;;;;;;;;;33.30;99.90;;;;;;5093647;28;19908;-72
2023/09/06 06:33:38;;;;;;;;;;;33.30;99.90;;;;;;5093011;28;19923;-73
2023/09/06 06:36:04;;;;;;;;;;;32.60;99.90;;;;;;5092619;28;19908;-70
2023/09/06 06:38:31;;;;;;;;;;;32.50;99.90;;;;;;5092181;28;19920;-71
2023/09/06 06:40:57;;;;;;;;;;;31.60;99.90;;;;;;5092844;28;20351;-72
2023/09/06 06:43:22;;;;;;;;;;;31.40;99.90;;;;;;5093007;28;19950;-73
2023/09/06 06:45:55;;;;;;;;;;;31.30;99.90;;;;;;5092747;28;19908;-71
2023/09/06 06:48:21;;;;;;;;;;;30.40;99.90;;;;;;5092966;28;19919;-72
2023/09/06 06:50:47;;;;;;;;;;;30.10;99.90;;;;;;5092491;28;19967;-72
2023/09/06 06:53:12;;;;;;;;;;;30.10;99.90;;;;;;5092337;28;19920;-72
2023/09/06 06:55:38;;;;;;;;;;;30.00;99.90;;;;;;5092476;28;20045;-72
2023/09/06 06:58:05;;;;;;;;;;;30.00;99.90;;;;;;5092633;28;19916;-72
2023/09/06 07:00:31;;;;;;;;;;;29.80;99.90;;;;;;5092275;28;19908;-73
2023/09/06 07:02:57;;;;;;;;;;;29.50;99.90;;;;;;5092396;28;20003;-72
2023/09/06 07:05:23;;;;;;;;;;;28.80;99.90;;;;;;5092844;28;20264;-71
2023/09/06 07:07:49;;;;;;;;;;;28.30;99.90;;;;;;5092410;28;20331;-72
2023/09/06 07:10:16;;;;;;;;;;;28.20;99.90;;;;;;5092427;28;19999;-72
2023/09/06 07:12:42;;;;;;;;;;;29.50;99.90;;;;;;5092224;28;20051;-73
2023/09/06 07:15:08;;;;;;;;;;;30.70;99.90;;;;;;5074320;28;19986;-71
2023/09/06 07:17:33;;;;;;;;;;;31.70;99.90;;;;;;5092477;28;20348;-72
2023/09/06 07:19:59;;;;;;;;;;;32.30;99.90;;;;;;5095235;28;20011;-72
2023/09/06 07:22:25;;;;;;;;;;;32.00;99.90;;;;;;5096305;28;19920;-72
2023/09/06 07:24:51;;;;;;;;;;;32.80;99.90;;;;;;5096801;28;20006;-72
2023/09/06 07:27:17;;;;;;;;;;;32.30;99.90;;;;;;5096328;28;19958;-72
2023/09/06 07:29:43;;;;;;;;;;;32.60;99.90;;;;;;5096028;28;19912;-72
2023/09/06 07:32:09;;;;;;;;;;;31.50;99.90;;;;;;5096248;28;20348;-71
2023/09/06 07:34:34;;;;;;;;;;;30.50;99.90;;;;;;5096215;28;20284;-72
2023/09/06 07:37:00;;;;;;;;;;;29.90;99.90;;;;;;5095665;28;19916;-72
2023/09/06 07:39:26;;;;;;;;;;;29.50;99.90;;;;;;5096276;28;20016;-72
2023/09/06 07:41:53;;;;;;;;;;;30.00;99.90;;;;;;5096210;28;19908;-72
2023/09/06 07:44:19;;;;;;;;;;;30.80;99.90;;;;;;5096293;28;19908;-72
2023/09/06 07:46:48;;;;;;;;;;;30.20;99.90;;;;;;5096061;28;19914;-71
2023/09/06 07:49:15;;;;;;;;;;;29.80;99.90;;;;;;5096079;28;20390;-71
2023/09/06 07:51:41;;;;;;;;;;;29.60;99.90;;;;;;5095861;28;19972;-72
2023/09/06 07:54:06;;;;;;;;;;;29.00;99.90;;;;;;5095899;28;19909;-71
2023/09/06 07:56:32;;;;;;;;;;;29.90;99.90;;;;;;5077624;28;19939;-72
2023/09/06 07:58:58;;;;;;;;;;;29.80;99.90;;;;;;5095997;28;19908;-71
2023/09/06 08:01:24;;;;;;;;;;;29.60;99.90;;;;;;5095865;28;20012;-71
2023/09/06 08:03:50;;;;;;;;;;;29.90;99.90;;;;;;5095718;28;19912;-71
2023/09/06 08:06:16;;;;;;;;;;;30.50;99.90;;;;;;5095875;28;20015;-71
2023/09/06 08:08:41;;;;;;;;;;;30.00;99.90;;;;;;5095706;28;20348;-71
2023/09/06 08:11:07;;;;;;;;;;;29.50;99.90;;;;;;5095493;28;20320;-71
2023/09/06 08:13:33;;;;;;;;;;;29.60;99.90;;;;;;5095473;28;19943;-71
2023/09/06 08:16:00;;;;;;;;;;;29.80;99.90;;;;;;5095278;28;20453;-72
2023/09/06 08:18:27;;;;;;;;;;;30.00;99.90;;;;;;5095240;28;19912;-72
2023/09/06 08:20:53;;;;;;;;;;;29.60;99.90;;;;;;5095237;28;19912;-71
2023/09/06 08:23:18;;;;;;;;;;;28.50;99.90;;;;;;5095244;28;19914;-71
2023/09/06 08:25:46;;;;;;;;;;;28.30;99.90;;;;;;5095524;28;20379;-71
2023/09/06 08:28:14;;;;;;;;;;;28.50;99.90;;;;;;5095109;28;19909;-72
2023/09/06 08:30:41;;;;;;;;;;;28.80;99.90;;;;;;5093732;28;19908;-72
2023/09/06 08:33:07;;;;;;;;;;;28.90;99.90;;;;;;5095408;28;20277;-72
2023/09/06 08:35:33;;;;;;;;;;;29.00;99.90;;;;;;5095520;28;19919;-72
2023/09/06 08:37:58;;;;;;;;;;;28.30;99.90;;;;;;5094671;28;19920;-71
2023/09/06 08:40:25;;;;;;;;;;;28.40;99.90;;;;;;5095017;28;19908;-70
2023/09/06 08:42:52;;;;;;;;;;;28.90;99.90;;;;;;5095311;28;19916;-72
2023/09/06 08:45:20;;;;;;;;;;;28.50;99.90;;;;;;5094882;28;19908;-73
2023/09/06 08:47:47;;;;;;;;;;;28.10;99.90;;;;;;5076529;28;20368;-73
2023/09/06 08:50:13;;;;;;;;;;;28.10;99.90;;;;;;5094452;28;19920;-71
2023/09/06 08:52:42;;;;;;;;;;;27.70;99.90;;;;;;5094332;28;19920;-72
2023/09/06 08:55:12;;;;;;;;;;;27.50;99.90;;;;;;5094744;28;19908;-73
2023/09/06 08:57:38;;;;;;;;;;;27.60;99.90;;;;;;5094629;28;19908;-72
2023/09/06 09:00:04;;;;;;;;;;;27.70;99.90;;;;;;5094568;28;20352;-71
2023/09/06 09:02:30;;;;;;;;;;;27.70;99.90;;;;;;5094300;28;19912;-72
2023/09/06 09:04:56;;;;;;;;;;;27.50;99.90;;;;;;5094289;28;19974;-73
2023/09/06 09:07:22;;;;;;;;;;;27.30;99.90;;;;;;5094273;28;20088;-72
2023/09/06 09:10:14;;;;;;;;;;;27.30;99.90;;;;;;5094813;28;20318;-72
2023/09/06 09:12:39;;;;;;;;;;;27.30;99.90;;;;;;5091118;28;20367;-71
2023/09/06 09:15:07;;;;;;;;;;;27.20;99.90;;;;;;5094176;28;19908;-71
2023/09/06 09:17:34;;;;;;;;;;;27.20;99.90;;;;;;5093936;28;19981;-71
2023/09/06 09:20:00;;;;;;;;;;;27.60;99.90;;;;;;5075522;28;19967;-71
2023/09/06 09:22:27;;;;;;;;;;;27.50;99.90;;;;;;5094115;28;19915;-71
2023/09/06 09:24:58;;;;;;;;;;;27.40;99.90;;;;;;5075576;28;20031;-71
2023/09/06 09:27:25;;;;;;;;;;;27.20;99.90;;;;;;5093849;28;19943;-72
2023/09/06 09:29:51;;;;;;;;;;;27.40;99.90;;;;;;5075771;28;19908;-71
2023/09/06 09:32:17;;;;;;;;;;;27.50;99.90;;;;;;5094241;28;19919;-72
2023/09/06 09:34:44;;;;;;;;;;;27.70;99.90;;;;;;5076225;28;19918;-72
2023/09/06 09:37:10;;;;;;;;;;;28.00;99.90;;;;;;5093818;28;20082;-71
2023/09/06 09:39:39;;;;;;;;;;;28.10;99.90;;;;;;5075720;28;20015;-72
2023/09/06 09:42:08;;;;;;;;;;;27.80;99.90;;;;;;5094479;28;20003;-74
2023/09/06 09:44:34;;;;;;;;;;;28.00;99.90;;;;;;5093854;28;19909;-72
2023/09/06 09:47:08;;;;;;;;;;;28.00;99.90;;;;;;5093981;28;20053;-72
2023/09/06 09:49:34;;;;;;;;;;;28.00;99.90;;;;;;5094058;28;20379;-72
2023/09/06 09:52:00;;;;;;;;;;;28.70;99.90;;;;;;5093664;28;19916;-72
2023/09/06 09:54:28;;;;;;;;;;;28.20;99.90;;;;;;5094284;28;19915;-72
2023/09/06 09:57:06;;;;;;;;;;;28.10;99.90;;;;;;5093846;28;19915;-72
2023/09/06 09:59:35;;;;;;;;;;;28.10;99.90;;;;;;5093947;28;19912;-72
2023/09/06 10:02:02;;;;;;;;;;;28.40;99.90;;;;;;5075468;28;19947;-72
2023/09/06 10:04:29;;;;;;;;;;;28.50;99.90;;;;;;5093965;28;19931;-73
2023/09/06 10:06:55;;;;;;;;;;;28.80;99.90;;;;;;5093396;28;19954;-71
2023/09/06 10:09:21;;;;;;;;;;;29.30;99.90;;;;;;5093483;28;19954;-71
2023/09/06 10:11:49;;;;;;;;;;;29.70;99.90;;;;;;5092992;28;19958;-72
2023/09/06 10:14:16;;;;;;;;;;;29.30;99.90;;;;;;5093223;28;19912;-72
2023/09/06 10:16:42;;;;;;;;;;;29.00;99.90;;;;;;5093622;28;19981;-71
2023/09/06 10:19:08;;;;;;;;;;;29.00;99.90;;;;;;5093271;28;20360;-72
2023/09/06 10:21:34;;;;;;;;;;;29.10;99.90;;;;;;5093349;28;19915;-72
2023/09/06 10:24:00;;;;;;;;;;;28.70;99.90;;;;;;5093082;28;20307;-72
2023/09/06 10:26:27;;;;;;;;;;;28.80;99.90;;;;;;5093098;28;19908;-71
2023/09/06 10:28:56;;;;;;;;;;;28.50;99.90;;;;;;5074934;28;19912;-71
2023/09/06 10:31:34;;;;;;;;;;;28.30;99.90;;;;;;5093498;28;19915;-71
2023/09/06 10:34:00;;;;;;;;;;;28.50;99.90;;;;;;5093158;28;20140;-72
2023/09/06 10:36:29;;;;;;;;;;;28.70;99.90;;;;;;5093198;28;19977;-71
2023/09/06 10:38:57;;;;;;;;;;;28.90;99.90;;;;;;5093662;28;19923;-71
2023/09/06 10:41:23;;;;;;;;;;;28.80;99.90;;;;;;5093052;28;19912;-71
2023/09/06 10:43:49;;;;;;;;;;;28.90;99.90;;;;;;5092907;28;19908;-71
2023/09/06 10:46:18;;;;;;;;;;;28.90;99.90;;;;;;5092896;28;19916;-72
2023/09/06 10:49:02;;;;;;;;;;;28.80;99.90;;;;;;5092599;28;19912;-71
2023/09/06 10:51:28;;;;;;;;;;;28.80;99.90;;;;;;5092809;28;19999;-72
2023/09/06 10:53:55;;;;;;;;;;;29.40;99.90;;;;;;5092040;28;19912;-72
2023/09/06 10:56:28;;;;;;;;;;;29.50;99.90;;;;;;5092837;28;19915;-71
2023/09/06 10:58:57;;;;;;;;;;;29.40;99.90;;;;;;5092842;28;20259;-71
2023/09/06 11:01:23;;;;;;;;;;;29.30;99.90;;;;;;5092998;28;19967;-71
2023/09/06 11:03:52;;;;;;;;;;;29.10;99.90;;;;;;5092512;28;19908;-71
2023/09/06 11:06:20;;;;;;;;;;;29.00;99.90;;;;;;5092196;28;19952;-71
2023/09/06 11:08:47;;;;;;;;;;;29.20;99.90;;;;;;5092859;28;19908;-71
2023/09/06 11:11:14;;;;;;;;;;;29.10;99.90;;;;;;5092513;28;19912;-70
2023/09/06 11:13:41;;;;;;;;;;;28.90;99.90;;;;;;5092297;28;20368;-71
2023/09/06 11:16:12;;;;;;;;;;;28.60;99.90;;;;;;5092392;28;19909;-72
2023/09/06 11:18:43;;;;;;;;;;;28.80;99.90;;;;;;5092424;28;19931;-73
2023/09/06 11:21:08;;;;;;;;;;;28.80;99.90;;;;;;5092786;28;19920;-70
2023/09/06 11:24:03;;;;;;;;;;;28.60;99.90;;;;;;5092537;28;19908;-73
2023/09/06 11:26:34;;;;;;;;;;;28.40;99.90;;;;;;5030384;28;19916;-71
2023/09/06 11:29:06;;;;;;;;;;;28.20;99.90;;;;;;5030307;28;20461;-71
2023/09/06 11:31:34;;;;;;;;;;;28.10;99.90;;;;;;5030815;28;19909;-71
2023/09/06 11:34:04;;;;;;;;;;;28.20;99.90;;;;;;5030087;28;19957;-72
2023/09/06 11:36:36;;;;;;;;;;;28.40;99.90;;;;;;5029557;28;19913;-71
2023/09/06 11:39:15;;;;;;;;;;;28.20;99.90;;;;;;5013492;28;20028;-71
2023/09/06 11:41:43;;;;;;;;;;;28.10;99.90;;;;;;5013641;28;20011;-72
2023/09/06 11:44:11;;;;;;;;;;;28.20;99.90;;;;;;5013403;28;19910;-71
2023/09/06 11:46:38;;;;;;;;;;;28.20;99.90;;;;;;5029955;28;20076;-71
2023/09/06 11:49:05;;;;;;;;;;;28.20;99.90;;;;;;5013220;28;19943;-71
2023/09/06 11:51:32;;;;;;;;;;;28.30;99.90;;;;;;5030319;28;19909;-71
2023/09/06 11:54:00;;;;;;;;;;;28.70;99.90;;;;;;5013518;28;19971;-72
2023/09/06 11:56:36;;;;;;;;;;;28.90;99.90;;;;;;5030035;28;19916;-70
2023/09/06 11:59:06;;;;;;;;;;;28.90;99.90;;;;;;5013559;28;20325;-71
2023/09/06 12:01:39;;;;;;;;;;;29.20;99.90;;;;;;5030013;28;20015;-71
2023/09/06 12:04:10;;;;;;;;;;;29.10;99.90;;;;;;5072000;28;19908;-72
2023/09/06 12:06:39;;;;;;;;;;;28.90;99.90;;;;;;5074813;28;19960;-71
2023/09/06 12:09:12;;;;;;;;;;;28.90;99.90;;;;;;5076023;28;19909;-71
2023/09/06 12:11:38;;;;;;;;;;;28.80;99.90;;;;;;5076201;28;19908;-71
2023/09/06 12:14:04;;;;;;;;;;;28.90;99.90;;;;;;5075703;28;19916;-72
2023/09/06 12:16:31;;;;;;;;;;;28.90;99.90;;;;;;5074465;28;20261;-71
2023/09/06 12:18:56;;;;;;;;;;;28.80;99.90;;;;;;5075733;28;19915;-71
2023/09/06 12:21:22;;;;;;;;;;;28.90;99.90;;;;;;5075993;28;19995;-71
2023/09/06 12:23:48;;;;;;;;;;;29.00;99.90;;;;;;5075820;28;19908;-71
2023/09/06 12:26:16;;;;;;;;;;;28.90;99.90;;;;;;5074357;28;20371;-71
2023/09/06 12:28:42;;;;;;;;;;;28.80;99.90;;;;;;5075974;28;19908;-71
2023/09/06 12:31:08;;;;;;;;;;;28.80;99.90;;;;;;5076064;28;19931;-71
2023/09/06 12:33:34;;;;;;;;;;;28.80;99.90;;;;;;5075863;28;19923;-71
2023/09/06 12:36:00;;;;;;;;;;;29.10;99.90;;;;;;5075992;28;19962;-72
2023/09/06 12:38:27;;;;;;;;;;;29.50;99.90;;;;;;5092974;28;20364;-71
2023/09/06 12:40:53;;;;;;;;;;;29.80;99.90;;;;;;5095872;28;19951;-71
2023/09/06 12:43:20;;;;;;;;;;;29.50;99.90;;;;;;5077489;28;19970;-71
2023/09/06 12:45:47;;;;;;;;;;;29.50;99.90;;;;;;5077628;28;19908;-72
2023/09/06 12:48:14;;;;;;;;;;;29.40;99.90;;;;;;5095568;28;20386;-71
2023/09/06 12:50:39;;;;;;;;;;;29.10;99.90;;;;;;5077393;28;20279;-72
2023/09/06 12:53:06;;;;;;;;;;;29.30;99.90;;;;;;5095466;28;19927;-72
2023/09/06 12:55:32;;;;;;;;;;;29.30;99.90;;;;;;5095681;28;19909;-71
2023/09/06 12:58:03;;;;;;;;;;;29.10;99.90;;;;;;5077277;28;19908;-72
2023/09/06 13:00:29;;;;;;;;;;;28.80;99.90;;;;;;5095753;28;20370;-72
2023/09/06 13:02:55;;;;;;;;;;;28.70;99.90;;;;;;5095419;28;19908;-70
2023/09/06 13:05:21;;;;;;;;;;;28.60;99.90;;;;;;5095085;28;19912;-72
2023/09/06 13:07:47;;;;;;;;;;;28.60;99.90;;;;;;5095101;28;20284;-71
2023/09/06 13:10:13;;;;;;;;;;;28.40;99.90;;;;;;5095562;28;19908;-71
2023/09/06 13:12:42;;;;;;;;;;;28.30;99.90;;;;;;5094973;28;20013;-73
2023/09/06 13:15:08;;;;;;;;;;;28.10;99.90;;;;;;5095129;28;19915;-71
2023/09/06 13:17:34;;;;;;;;;;;28.10;99.90;;;;;;5094723;28;20295;-72
2023/09/06 13:20:00;;;;;;;;;;;28.20;99.90;;;;;;5095001;28;19912;-71
2023/09/06 13:22:26;;;;;;;;;;;28.20;99.90;;;;;;5094928;28;20011;-71
2023/09/06 13:24:52;;;;;;;;;;;28.10;99.90;;;;;;5076810;28;19908;-71
2023/09/06 13:27:18;;;;;;;;;;;28.20;99.90;;;;;;5094929;28;19973;-71
2023/09/06 13:29:44;;;;;;;;;;;28.30;99.90;;;;;;5094671;28;20383;-71
2023/09/06 13:32:10;;;;;;;;;;;28.00;99.90;;;;;;5094619;28;19959;-71
2023/09/06 13:34:38;;;;;;;;;;;28.00;99.90;;;;;;5094767;28;19908;-71
2023/09/06 13:37:04;;;;;;;;;;;27.90;99.90;;;;;;5094278;28;20394;-71
2023/09/06 13:39:31;;;;;;;;;;;27.80;99.90;;;;;;5095171;28;20065;-73
2023/09/06 13:41:57;;;;;;;;;;;28.00;99.90;;;;;;5094599;28;19999;-71
2023/09/06 13:44:29;;;;;;;;;;;27.90;99.90;;;;;;5094955;28;19947;-71
2023/09/06 13:46:58;;;;;;;;;;;27.90;99.90;;;;;;5094693;28;20009;-71
2023/09/06 13:49:24;;;;;;;;;;;28.10;99.90;;;;;;5094343;28;20041;-71
2023/09/06 13:51:50;;;;;;;;;;;28.20;99.90;;;;;;5094383;28;19909;-71
2023/09/06 13:54:16;;;;;;;;;;;28.40;99.90;;;;;;5094150;28;19919;-71
2023/09/06 13:56:42;;;;;;;;;;;28.30;99.90;;;;;;5094875;28;20405;-71
2023/09/06 13:59:08;;;;;;;;;;;28.40;99.90;;;;;;5094038;28;19911;-71
2023/09/06 14:01:34;;;;;;;;;;;28.70;99.90;;;;;;5093965;28;20288;-71
2023/09/06 14:04:00;;;;;;;;;;;28.90;99.90;;;;;;5094007;28;19962;-71
2023/09/06 14:06:25;;;;;;;;;;;29.10;99.90;;;;;;5093884;28;19912;-71
2023/09/06 14:08:51;;;;;;;;;;;29.10;99.90;;;;;;5093880;28;19914;-71
2023/09/06 14:11:18;;;;;;;;;;;29.10;99.90;;;;;;5094045;28;19960;-71
2023/09/06 14:13:43;;;;;;;;;;;28.90;99.90;;;;;;5093929;28;19920;-71
2023/09/06 14:16:09;;;;;;;;;;;28.80;99.90;;;;;;5075756;28;19908;-71